sensor_id;sensor_type;location;lat;lon;timestamp;pressure;altitude;pressure_sealevel;temperature;humidity
64228;BME280;50546;49.146;10.616;2022-09-14T00:01:26;95602.72;;;19.56;74.61
64228;BME280;50546;49.146;10.616;2022-09-14T00:03:54;95595.28;;;19.60;74.54
64228;BME280;50546;49.146;10.616;2022-09-14T00:06:20;95590.59;;;19.57;74.87
64228;BME280;50546;49.146;10.616;2022-09-14T00:08:49;95595.28;;;19.49;75.18
64228;BME280;50546;49.146;10.616;2022-09-14T00:11:15;95588.28;;;19.48;75.18
64228;BME280;50546;49.146;10.616;2022-09-14T00:13:42;95595.28;;;19.38;75.79
64228;BME280;50546;49.146;10.616;2022-09-14T00:16:13;95595.69;;;19.19;76.40
64228;BME280;50546;49.146;10.616;2022-09-14T00:18:39;95590.63;;;19.28;76.13
64228;BME280;50546;49.146;10.616;2022-09-14T00:21:07;95584.78;;;19.37;75.42
64228;BME280;50546;49.146;10.616;2022-09-14T00:23:38;95576.94;;;19.42;75.18
64228;BME280;50546;49.146;10.616;2022-09-14T00:26:06;95583.59;;;19.41;75.51
64228;BME280;50546;49.146;10.616;2022-09-14T00:28:43;95584.00;;;19.29;76.19
64228;BME280;50546;49.146;10.616;2022-09-14T00:31:09;95575.78;;;19.36;75.60
64228;BME280;50546;49.146;10.616;2022-09-14T00:33:35;95569.56;;;19.32;76.06
64228;BME280;50546;49.146;10.616;2022-09-14T00:36:10;95579.69;;;19.42;75.47
64228;BME280;50546;49.146;10.616;2022-09-14T00:38:37;95570.31;;;19.51;74.78
64228;BME280;50546;49.146;10.616;2022-09-14T00:41:05;95555.47;;;19.55;75.08
64228;BME280;50546;49.146;10.616;2022-09-14T00:43:31;95549.59;;;19.60;74.59
64228;BME280;50546;49.146;10.616;2022-09-14T00:45:59;95542.22;;;19.46;75.85
64228;BME280;50546;49.146;10.616;2022-09-14T00:48:25;95539.09;;;19.37;76.92
64228;BME280;50546;49.146;10.616;2022-09-14T00:50:52;95549.25;;;19.40;76.34
64228;BME280;50546;49.146;10.616;2022-09-14T00:53:18;95550.44;;;19.39;76.11
64228;BME280;50546;49.146;10.616;2022-09-14T00:55:44;95541.06;;;19.40;76.01
64228;BME280;50546;49.146;10.616;2022-09-14T00:58:09;95543.00;;;19.43;75.72
64228;BME280;50546;49.146;10.616;2022-09-14T01:00:35;95539.09;;;19.41;76.23
64228;BME280;50546;49.146;10.616;2022-09-14T01:03:00;95534.81;;;19.36;76.34
64228;BME280;50546;49.146;10.616;2022-09-14T01:05:39;95537.91;;;19.49;76.04
64228;BME280;50546;49.146;10.616;2022-09-14T01:11:00;95530.50;;;19.39;76.99
64228;BME280;50546;49.146;10.616;2022-09-14T01:13:57;95531.31;;;19.25;77.72
64228;BME280;50546;49.146;10.616;2022-09-14T01:16:25;95528.59;;;19.25;78.17
64228;BME280;50546;49.146;10.616;2022-09-14T01:18:56;95527.41;;;19.37;77.32
64228;BME280;50546;49.146;10.616;2022-09-14T01:21:25;95524.28;;;19.35;77.46
64228;BME280;50546;49.146;10.616;2022-09-14T01:29:11;95515.69;;;19.36;77.44
64228;BME280;50546;49.146;10.616;2022-09-14T01:34:48;95500.88;;;19.12;77.48
64228;BME280;50546;49.146;10.616;2022-09-14T01:37:21;95503.25;;;18.96;77.47
64228;BME280;50546;49.146;10.616;2022-09-14T01:39:53;95504.03;;;19.04;77.51
64228;BME280;50546;49.146;10.616;2022-09-14T01:42:22;95497.38;;;18.94;74.34
64228;BME280;50546;49.146;10.616;2022-09-14T01:44:54;95491.13;;;18.79;72.66
64228;BME280;50546;49.146;10.616;2022-09-14T01:47:33;95488.00;;;18.73;72.27
64228;BME280;50546;49.146;10.616;2022-09-14T01:50:17;95478.28;;;18.87;72.87
64228;BME280;50546;49.146;10.616;2022-09-14T01:52:52;95468.53;;;18.93;73.35
64228;BME280;50546;49.146;10.616;2022-09-14T01:55:50;95460.72;;;19.02;73.72
64228;BME280;50546;49.146;10.616;2022-09-14T02:01:01;95435.72;;;19.21;72.67
64228;BME280;50546;49.146;10.616;2022-09-14T02:03:30;95436.09;;;19.23;72.75
64228;BME280;50546;49.146;10.616;2022-09-14T02:06:05;95423.22;;;19.28;72.45
64228;BME280;50546;49.146;10.616;2022-09-14T02:08:33;95418.97;;;19.16;73.80
64228;BME280;50546;49.146;10.616;2022-09-14T02:10:59;95416.63;;;19.18;74.06
64228;BME280;50546;49.146;10.616;2022-09-14T02:13:25;95430.66;;;19.20;74.42
64228;BME280;50546;49.146;10.616;2022-09-14T02:15:51;95429.88;;;19.12;74.35
64228;BME280;50546;49.146;10.616;2022-09-14T02:18:17;95430.28;;;19.18;74.44
64228;BME280;50546;49.146;10.616;2022-09-14T02:20:59;95440.81;;;19.09;73.24
64228;BME280;50546;49.146;10.616;2022-09-14T02:23:25;95443.97;;;18.79;71.17
64228;BME280;50546;49.146;10.616;2022-09-14T02:25:51;95428.34;;;18.58;72.18
64228;BME280;50546;49.146;10.616;2022-09-14T02:28:16;95435.75;;;18.46;72.51
64228;BME280;50546;49.146;10.616;2022-09-14T02:30:48;95437.69;;;18.42;73.38
64228;BME280;50546;49.146;10.616;2022-09-14T02:33:28;95433.41;;;18.48;73.50
64228;BME280;50546;49.146;10.616;2022-09-14T02:36:04;95437.69;;;18.42;73.68
64228;BME280;50546;49.146;10.616;2022-09-14T02:38:56;95441.97;;;18.50;73.14
64228;BME280;50546;49.146;10.616;2022-09-14T02:41:35;95448.59;;;18.49;73.05
64228;BME280;50546;49.146;10.616;2022-09-14T02:44:15;95464.97;;;18.57;72.91
64228;BME280;50546;49.146;10.616;2022-09-14T02:46:54;95501.28;;;18.79;71.26
64228;BME280;50546;49.146;10.616;2022-09-14T02:55:08;95537.16;;;18.88;73.11
64228;BME280;50546;49.146;10.616;2022-09-14T02:58:00;95507.88;;;18.60;74.24
64228;BME280;50546;49.146;10.616;2022-09-14T03:00:27;95477.44;;;18.47;75.29
64228;BME280;50546;49.146;10.616;2022-09-14T03:02:52;95476.63;;;18.28;77.60
64228;BME280;50546;49.146;10.616;2022-09-14T03:05:18;95504.19;;;18.02;79.34
64228;BME280;50546;49.146;10.616;2022-09-14T03:07:43;95526.31;;;17.86;79.82
64228;BME280;50546;49.146;10.616;2022-09-14T03:10:08;95527.34;;;17.64;79.11
64228;BME280;50546;49.146;10.616;2022-09-14T03:12:34;95533.19;;;17.62;79.46
64228;BME280;50546;49.146;10.616;2022-09-14T03:15:01;95513.72;;;17.64;80.55
64228;BME280;50546;49.146;10.616;2022-09-14T03:17:27;95527.28;;;17.56;80.83
64228;BME280;50546;49.146;10.616;2022-09-14T03:19:52;95528.75;;;17.40;82.77
64228;BME280;50546;49.146;10.616;2022-09-14T03:22:17;95513.16;;;17.33;82.68
64228;BME280;50546;49.146;10.616;2022-09-14T03:24:42;95499.16;;;17.35;83.46
64228;BME280;50546;49.146;10.616;2022-09-14T03:27:07;95489.03;;;17.35;83.38
64228;BME280;50546;49.146;10.616;2022-09-14T03:29:33;95480.88;;;17.35;84.21
64228;BME280;50546;49.146;10.616;2022-09-14T03:31:58;95464.16;;;17.37;84.27
64228;BME280;50546;49.146;10.616;2022-09-14T03:34:23;95461.44;;;17.33;84.96
64228;BME280;50546;49.146;10.616;2022-09-14T03:36:49;95469.09;;;17.20;83.86
64228;BME280;50546;49.146;10.616;2022-09-14T03:39:14;95469.88;;;17.21;84.36
64228;BME280;50546;49.146;10.616;2022-09-14T03:41:39;95468.34;;;17.20;84.35
64228;BME280;50546;49.146;10.616;2022-09-14T03:44:04;95458.31;;;17.35;84.36
64228;BME280;50546;49.146;10.616;2022-09-14T03:46:30;95459.06;;;17.31;84.29
64228;BME280;50546;49.146;10.616;2022-09-14T03:48:55;95461.31;;;17.15;84.99
64228;BME280;50546;49.146;10.616;2022-09-14T03:51:21;95471.44;;;17.15;85.86
64228;BME280;50546;49.146;10.616;2022-09-14T03:53:46;95459.38;;;17.19;85.60
64228;BME280;50546;49.146;10.616;2022-09-14T03:56:15;95448.19;;;17.35;85.55
64228;BME280;50546;49.146;10.616;2022-09-14T03:58:41;95447.34;;;17.20;85.96
64228;BME280;50546;49.146;10.616;2022-09-14T04:01:10;95433.69;;;17.17;86.12
64228;BME280;50546;49.146;10.616;2022-09-14T04:03:36;95423.97;;;17.12;86.30
64228;BME280;50546;49.146;10.616;2022-09-14T04:06:03;95394.44;;;17.18;86.18
64228;BME280;50546;49.146;10.616;2022-09-14T04:08:31;95404.50;;;17.10;86.70
64228;BME280;50546;49.146;10.616;2022-09-14T04:10:56;95417.69;;;17.04;87.51
64228;BME280;50546;49.146;10.616;2022-09-14T04:13:21;95403.75;;;17.13;87.31
64228;BME280;50546;49.146;10.616;2022-09-14T04:15:59;95413.53;;;17.25;86.81
64228;BME280;50546;49.146;10.616;2022-09-14T04:18:25;95414.31;;;17.22;87.31
64228;BME280;50546;49.146;10.616;2022-09-14T04:21:01;95407.66;;;17.16;87.80
64228;BME280;50546;49.146;10.616;2022-09-14T04:23:27;95411.81;;;16.99;88.68
64228;BME280;50546;49.146;10.616;2022-09-14T04:25:53;95407.53;;;16.94;89.11
64228;BME280;50546;49.146;10.616;2022-09-14T04:28:19;95412.63;;;16.99;89.23
64228;BME280;50546;49.146;10.616;2022-09-14T04:30:54;95404.88;;;17.08;88.29
64228;BME280;50546;49.146;10.616;2022-09-14T04:33:19;95393.69;;;17.24;87.93
64228;BME280;50546;49.146;10.616;2022-09-14T04:35:44;95390.59;;;17.26;87.56
64228;BME280;50546;49.146;10.616;2022-09-14T04:38:09;95393.00;;;17.45;87.12
64228;BME280;50546;49.146;10.616;2022-09-14T04:40:39;95394.59;;;17.57;86.68
64228;BME280;50546;49.146;10.616;2022-09-14T04:43:05;95391.13;;;17.64;86.31
64228;BME280;50546;49.146;10.616;2022-09-14T04:45:30;95385.75;;;17.78;85.58
64228;BME280;50546;49.146;10.616;2022-09-14T04:47:55;95388.41;;;17.60;86.06
64228;BME280;50546;49.146;10.616;2022-09-14T04:50:20;95393.16;;;17.77;85.37
64228;BME280;50546;49.146;10.616;2022-09-14T04:52:46;95390.06;;;17.86;84.58
64228;BME280;50546;49.146;10.616;2022-09-14T04:55:11;95385.72;;;17.71;85.02
64228;BME280;50546;49.146;10.616;2022-09-14T04:57:36;95384.22;;;17.84;85.45
64228;BME280;50546;49.146;10.616;2022-09-14T05:00:02;95381.81;;;17.65;85.36
64228;BME280;50546;49.146;10.616;2022-09-14T05:02:28;95381.00;;;17.61;86.05
64228;BME280;50546;49.146;10.616;2022-09-14T05:04:54;95372.03;;;17.53;86.42
64228;BME280;50546;49.146;10.616;2022-09-14T05:07:20;95362.75;;;17.65;86.40
64228;BME280;50546;49.146;10.616;2022-09-14T05:09:45;95355.38;;;17.72;85.71
64228;BME280;50546;49.146;10.616;2022-09-14T05:12:10;95353.84;;;17.78;86.20
64228;BME280;50546;49.146;10.616;2022-09-14T05:14:35;95356.47;;;17.61;86.51
64228;BME280;50546;49.146;10.616;2022-09-14T05:17:01;95357.69;;;17.70;85.82
64228;BME280;50546;49.146;10.616;2022-09-14T05:19:27;95355.31;;;17.51;86.75
64228;BME280;50546;49.146;10.616;2022-09-14T05:21:52;95347.88;;;17.41;87.51
64228;BME280;50546;49.146;10.616;2022-09-14T05:24:17;95351.78;;;17.47;87.24
64228;BME280;50546;49.146;10.616;2022-09-14T05:26:44;95359.56;;;17.48;87.62
64228;BME280;50546;49.146;10.616;2022-09-14T05:29:15;95350.59;;;17.44;87.15
64228;BME280;50546;49.146;10.616;2022-09-14T05:31:42;95340.88;;;17.43;87.78
64228;BME280;50546;49.146;10.616;2022-09-14T05:34:08;95338.88;;;17.26;88.79
64228;BME280;50546;49.146;10.616;2022-09-14T05:36:35;95333.81;;;17.28;89.16
64228;BME280;50546;49.146;10.616;2022-09-14T05:39:00;95338.38;;;17.02;90.05
64228;BME280;50546;49.146;10.616;2022-09-14T05:41:25;95354.28;;;16.97;90.84
64228;BME280;50546;49.146;10.616;2022-09-14T05:43:51;95358.50;;;16.87;91.93
64228;BME280;50546;49.146;10.616;2022-09-14T05:46:17;95354.59;;;16.84;91.95
64228;BME280;50546;49.146;10.616;2022-09-14T05:48:46;95357.72;;;16.87;92.02
64228;BME280;50546;49.146;10.616;2022-09-14T05:51:15;95355.63;;;16.69;93.64
64228;BME280;50546;49.146;10.616;2022-09-14T05:53:42;95355.63;;;16.66;94.19
64228;BME280;50546;49.146;10.616;2022-09-14T05:56:09;95338.91;;;16.64;94.52
64228;BME280;50546;49.146;10.616;2022-09-14T05:58:36;95329.97;;;16.63;94.39
64228;BME280;50546;49.146;10.616;2022-09-14T06:01:13;95330.28;;;16.54;95.11
64228;BME280;50546;49.146;10.616;2022-09-14T06:03:39;95326.41;;;16.55;95.66
64228;BME280;50546;49.146;10.616;2022-09-14T06:06:05;95320.53;;;16.46;95.60
64228;BME280;50546;49.146;10.616;2022-09-14T06:08:32;95305.41;;;16.49;96.41
64228;BME280;50546;49.146;10.616;2022-09-14T06:11:05;95306.19;;;16.49;96.40
64228;BME280;50546;49.146;10.616;2022-09-14T06:13:31;95311.63;;;16.49;96.32
64228;BME280;50546;49.146;10.616;2022-09-14T06:16:03;95342.00;;;16.66;96.57
64228;BME280;50546;49.146;10.616;2022-09-14T06:18:31;95327.28;;;16.67;97.00
64228;BME280;50546;49.146;10.616;2022-09-14T06:20:56;95303.16;;;16.61;97.61
64228;BME280;50546;49.146;10.616;2022-09-14T06:23:22;95314.66;;;16.41;98.82
64228;BME280;50546;49.146;10.616;2022-09-14T06:25:47;95322.44;;;16.39;99.90
64228;BME280;50546;49.146;10.616;2022-09-14T06:28:12;95325.66;;;16.58;99.24
64228;BME280;50546;49.146;10.616;2022-09-14T06:30:41;95329.28;;;16.77;99.06
64228;BME280;50546;49.146;10.616;2022-09-14T06:33:06;95337.16;;;16.93;98.08
64228;BME280;50546;49.146;10.616;2022-09-14T06:35:32;95342.19;;;16.87;97.97
64228;BME280;50546;49.146;10.616;2022-09-14T06:37:57;95342.97;;;16.91;97.57
64228;BME280;50546;49.146;10.616;2022-09-14T06:40:22;95357.78;;;16.97;97.39
64228;BME280;50546;49.146;10.616;2022-09-14T06:42:48;95351.63;;;17.07;96.85
64228;BME280;50546;49.146;10.616;2022-09-14T06:45:13;95359.09;;;17.25;96.03
64228;BME280;50546;49.146;10.616;2022-09-14T06:47:39;95354.50;;;17.43;94.95
64228;BME280;50546;49.146;10.616;2022-09-14T06:50:04;95349.34;;;17.24;94.76
64228;BME280;50546;49.146;10.616;2022-09-14T06:52:30;95340.81;;;17.22;96.23
64228;BME280;50546;49.146;10.616;2022-09-14T06:54:55;95343.88;;;17.17;96.05
64228;BME280;50546;49.146;10.616;2022-09-14T06:57:20;95347.00;;;17.19;96.20
64228;BME280;50546;49.146;10.616;2022-09-14T06:59:45;95347.06;;;17.33;95.58
64228;BME280;50546;49.146;10.616;2022-09-14T07:02:12;95349.03;;;17.40;95.44
64228;BME280;50546;49.146;10.616;2022-09-14T07:04:38;95347.47;;;17.42;94.99
64228;BME280;50546;49.146;10.616;2022-09-14T07:07:03;95348.63;;;17.34;95.43
64228;BME280;50546;49.146;10.616;2022-09-14T07:09:28;95347.09;;;17.37;95.91
64228;BME280;50546;49.146;10.616;2022-09-14T07:11:55;95333.84;;;17.35;95.80
64228;BME280;50546;49.146;10.616;2022-09-14T07:14:21;95332.31;;;17.41;96.03
64228;BME280;50546;49.146;10.616;2022-09-14T07:16:46;95333.06;;;17.35;95.73
64228;BME280;50546;49.146;10.616;2022-09-14T07:19:13;95331.13;;;17.42;95.94
64228;BME280;50546;49.146;10.616;2022-09-14T07:21:39;95335.81;;;17.45;96.71
64228;BME280;50546;49.146;10.616;2022-09-14T07:24:04;95338.53;;;17.45;96.25
64228;BME280;50546;49.146;10.616;2022-09-14T07:26:37;95338.56;;;17.52;95.63
64228;BME280;50546;49.146;10.616;2022-09-14T07:29:10;95337.84;;;17.70;94.75
64228;BME280;50546;49.146;10.616;2022-09-14T07:31:37;95331.22;;;17.71;94.74
64228;BME280;50546;49.146;10.616;2022-09-14T07:34:04;95339.38;;;17.67;94.63
64228;BME280;50546;49.146;10.616;2022-09-14T07:36:32;95337.06;;;17.66;94.59
64228;BME280;50546;49.146;10.616;2022-09-14T07:38:57;95344.06;;;17.67;95.13
64228;BME280;50546;49.146;10.616;2022-09-14T07:41:25;95337.13;;;17.80;94.62
64228;BME280;50546;49.146;10.616;2022-09-14T07:43:53;95338.63;;;17.74;94.46
64228;BME280;50546;49.146;10.616;2022-09-14T07:46:20;95342.16;;;17.78;94.57
64228;BME280;50546;49.146;10.616;2022-09-14T07:48:46;95346.44;;;17.86;95.25
64228;BME280;50546;49.146;10.616;2022-09-14T07:51:11;95343.34;;;17.88;94.74
64228;BME280;50546;49.146;10.616;2022-09-14T07:53:40;95344.53;;;17.83;95.00
64228;BME280;50546;49.146;10.616;2022-09-14T07:56:08;95345.72;;;18.11;94.24
64228;BME280;50546;49.146;10.616;2022-09-14T07:58:35;95341.81;;;18.12;93.70
64228;BME280;50546;49.146;10.616;2022-09-14T08:01:02;95346.50;;;18.33;93.23
64228;BME280;50546;49.146;10.616;2022-09-14T08:03:28;95346.50;;;18.50;92.79
64228;BME280;50546;49.146;10.616;2022-09-14T08:06:00;95346.91;;;18.74;91.54
64228;BME280;50546;49.146;10.616;2022-09-14T08:08:28;95343.00;;;18.79;91.10
64228;BME280;50546;49.146;10.616;2022-09-14T08:10:53;95349.59;;;18.88;90.51
64228;BME280;50546;49.146;10.616;2022-09-14T08:13:21;95351.91;;;19.00;90.69
64228;BME280;50546;49.146;10.616;2022-09-14T08:15:46;95338.97;;;19.19;90.40
64228;BME280;50546;49.146;10.616;2022-09-14T08:18:11;95342.88;;;19.25;90.00
64228;BME280;50546;49.146;10.616;2022-09-14T08:20:37;95347.50;;;19.32;90.12
64228;BME280;50546;49.146;10.616;2022-09-14T08:23:03;95347.13;;;19.30;89.87
64228;BME280;50546;49.146;10.616;2022-09-14T08:25:28;95354.94;;;19.24;90.15
64228;BME280;50546;49.146;10.616;2022-09-14T08:27:53;95347.94;;;19.27;90.27
64228;BME280;50546;49.146;10.616;2022-09-14T08:30:18;95348.28;;;19.36;89.92
64228;BME280;50546;49.146;10.616;2022-09-14T08:32:44;95352.53;;;19.47;89.13
64228;BME280;50546;49.146;10.616;2022-09-14T08:35:09;95348.69;;;19.34;89.98
64228;BME280;50546;49.146;10.616;2022-09-14T08:37:35;95343.59;;;19.36;90.09
64228;BME280;50546;49.146;10.616;2022-09-14T08:40:00;95354.06;;;19.56;89.63
64228;BME280;50546;49.146;10.616;2022-09-14T08:42:26;95350.97;;;19.46;89.91
64228;BME280;50546;49.146;10.616;2022-09-14T08:44:54;95354.06;;;19.52;89.98
64228;BME280;50546;49.146;10.616;2022-09-14T08:47:27;95339.25;;;19.46;90.00
64228;BME280;50546;49.146;10.616;2022-09-14T08:52:44;95367.34;;;19.54;89.92
64228;BME280;50546;49.146;10.616;2022-09-14T08:55:40;95383.72;;;19.57;89.79
64228;BME280;50546;49.146;10.616;2022-09-14T09:00:53;95368.09;;;19.68;89.56
64228;BME280;50546;49.146;10.616;2022-09-14T09:06:17;95368.09;;;19.68;89.49
64228;BME280;50546;49.146;10.616;2022-09-14T09:11:39;95377.72;;;19.91;89.17
64228;BME280;50546;49.146;10.616;2022-09-14T09:14:14;95401.91;;;19.92;88.63
64228;BME280;50546;49.146;10.616;2022-09-14T09:16:43;95415.56;;;20.00;88.63
64228;BME280;50546;49.146;10.616;2022-09-14T09:19:14;95427.56;;;20.20;88.32
64228;BME280;50546;49.146;10.616;2022-09-14T09:21:45;95420.91;;;20.21;87.89
64228;BME280;50546;49.146;10.616;2022-09-14T09:26:55;95443.59;;;20.14;87.34
64228;BME280;50546;49.146;10.616;2022-09-14T09:29:21;95445.13;;;20.26;87.28
64228;BME280;50546;49.146;10.616;2022-09-14T09:31:49;95450.59;;;20.26;87.98
64228;BME280;50546;49.146;10.616;2022-09-14T09:34:16;95427.75;;;20.51;86.23
64228;BME280;50546;49.146;10.616;2022-09-14T09:36:46;95434.75;;;20.59;85.64
64228;BME280;50546;49.146;10.616;2022-09-14T09:39:13;95426.00;;;20.78;85.03
64228;BME280;50546;49.146;10.616;2022-09-14T09:42:00;95432.63;;;20.81;84.69
64228;BME280;50546;49.146;10.616;2022-09-14T09:44:27;95440.25;;;21.04;84.86
64228;BME280;50546;49.146;10.616;2022-09-14T09:46:55;95437.44;;;21.11;84.69
64228;BME280;50546;49.146;10.616;2022-09-14T09:49:36;95429.13;;;21.22;83.38
64228;BME280;50546;49.146;10.616;2022-09-14T09:52:15;95431.16;;;21.14;82.17
64228;BME280;50546;49.146;10.616;2022-09-14T09:54:49;95432.09;;;21.38;82.79
64228;BME280;50546;49.146;10.616;2022-09-14T09:57:35;95425.16;;;21.64;82.55
64228;BME280;50546;49.146;10.616;2022-09-14T10:00:24;95408.44;;;21.85;80.62
64228;BME280;50546;49.146;10.616;2022-09-14T10:02:51;95398.94;;;21.94;81.04
64228;BME280;50546;49.146;10.616;2022-09-14T10:05:18;95393.38;;;22.01;81.02
64228;BME280;50546;49.146;10.616;2022-09-14T10:07:49;95390.53;;;22.08;79.06
64228;BME280;50546;49.146;10.616;2022-09-14T10:10:18;95370.47;;;22.11;79.57
64228;BME280;50546;49.146;10.616;2022-09-14T10:12:49;95378.19;;;22.23;79.80
64228;BME280;50546;49.146;10.616;2022-09-14T10:15:28;95375.94;;;22.42;78.63
64228;BME280;50546;49.146;10.616;2022-09-14T10:18:03;95373.91;;;22.69;78.02
64228;BME280;50546;49.146;10.616;2022-09-14T10:20:30;95376.09;;;22.81;76.36
64228;BME280;50546;49.146;10.616;2022-09-14T10:22:55;95388.63;;;22.82;77.55
64228;BME280;50546;49.146;10.616;2022-09-14T10:25:23;95377.41;;;22.73;76.95
64228;BME280;50546;49.146;10.616;2022-09-14T10:30:43;95373.72;;;22.80;76.00
64228;BME280;50546;49.146;10.616;2022-09-14T10:33:09;95381.16;;;23.06;75.94
64228;BME280;50546;49.146;10.616;2022-09-14T10:35:50;95386.59;;;23.10;76.54
64228;BME280;50546;49.146;10.616;2022-09-14T10:38:51;95372.59;;;23.24;73.84
64228;BME280;50546;49.146;10.616;2022-09-14T10:41:24;95377.03;;;23.18;75.70
64228;BME280;50546;49.146;10.616;2022-09-14T10:44:14;95378.03;;;23.28;75.58
64228;BME280;50546;49.146;10.616;2022-09-14T10:52:35;95371.13;;;23.40;74.39
64228;BME280;50546;49.146;10.616;2022-09-14T10:58:04;95344.16;;;23.91;72.83
64228;BME280;50546;49.146;10.616;2022-09-14T11:00:48;95344.44;;;23.57;71.63
64228;BME280;50546;49.146;10.616;2022-09-14T11:08:41;95336.91;;;23.41;73.25
64228;BME280;50546;49.146;10.616;2022-09-14T11:11:25;95328.16;;;23.86;71.93
64228;BME280;50546;49.146;10.616;2022-09-14T11:25:05;95318.56;;;24.26;70.41
64228;BME280;50546;49.146;10.616;2022-09-14T11:27:39;95316.50;;;24.14;68.05
64228;BME280;50546;49.146;10.616;2022-09-14T11:30:17;95315.75;;;24.30;69.08
64228;BME280;50546;49.146;10.616;2022-09-14T11:33:08;95314.00;;;24.36;68.55
64228;BME280;50546;49.146;10.616;2022-09-14T11:35:40;95320.63;;;24.39;68.96
64228;BME280;50546;49.146;10.616;2022-09-14T11:40:47;95307.22;;;24.57;67.85
64228;BME280;50546;49.146;10.616;2022-09-14T11:43:17;95295.53;;;24.69;68.29
64228;BME280;50546;49.146;10.616;2022-09-14T11:45:51;95295.53;;;24.69;66.63
64228;BME280;50546;49.146;10.616;2022-09-14T11:48:25;95296.28;;;24.70;66.66
64228;BME280;50546;49.146;10.616;2022-09-14T11:51:01;95279.03;;;24.82;67.29
64228;BME280;50546;49.146;10.616;2022-09-14T11:53:30;95282.63;;;24.50;67.17
64228;BME280;50546;49.146;10.616;2022-09-14T11:55:56;95276.78;;;24.48;67.05
64228;BME280;50546;49.146;10.616;2022-09-14T11:58:24;95272.63;;;24.56;66.69
64228;BME280;50546;49.146;10.616;2022-09-14T12:03:21;95277.72;;;24.87;66.18
64228;BME280;50546;49.146;10.616;2022-09-14T12:05:48;95273.91;;;24.97;66.98
64228;BME280;50546;49.146;10.616;2022-09-14T12:11:22;95275.28;;;25.47;63.79
64228;BME280;50546;49.146;10.616;2022-09-14T12:13:48;95269.78;;;25.60;64.66
64228;BME280;50546;49.146;10.616;2022-09-14T12:16:14;95273.78;;;25.72;64.50
64228;BME280;50546;49.146;10.616;2022-09-14T12:18:41;95276.41;;;25.62;65.20
64228;BME280;50546;49.146;10.616;2022-09-14T12:21:25;95275.50;;;25.53;63.63
64228;BME280;50546;49.146;10.616;2022-09-14T12:23:52;95265.59;;;25.55;64.15
64228;BME280;50546;49.146;10.616;2022-09-14T12:26:30;95271.34;;;25.74;63.23
64228;BME280;50546;49.146;10.616;2022-09-14T12:29:45;95273.78;;;25.72;63.13
64228;BME280;50546;49.146;10.616;2022-09-14T12:34:23;95270.22;;;25.58;63.09
64228;BME280;50546;49.146;10.616;2022-09-14T12:39:31;95278.84;;;25.73;63.90
64228;BME280;50546;49.146;10.616;2022-09-14T12:42:04;95271.56;;;26.17;63.42
64228;BME280;50546;49.146;10.616;2022-09-14T12:44:47;95273.06;;;26.70;62.69
64228;BME280;50546;49.146;10.616;2022-09-14T12:47:49;95286.00;;;26.60;62.20
64228;BME280;50546;49.146;10.616;2022-09-14T12:50:21;95271.84;;;26.58;60.70
64228;BME280;50546;49.146;10.616;2022-09-14T13:00:54;95288.53;;;25.10;63.26
64228;BME280;50546;49.146;10.616;2022-09-14T13:03:26;95280.63;;;24.96;64.23
64228;BME280;50546;49.146;10.616;2022-09-14T13:06:00;95275.91;;;24.96;64.90
64228;BME280;50546;49.146;10.616;2022-09-14T13:08:26;95277.63;;;24.90;64.59
64228;BME280;50546;49.146;10.616;2022-09-14T13:10:51;95272.28;;;25.00;65.29
64228;BME280;50546;49.146;10.616;2022-09-14T13:13:26;95262.88;;;25.13;64.57
64228;BME280;50546;49.146;10.616;2022-09-14T13:15:57;95248.59;;;25.57;64.46
64228;BME280;50546;49.146;10.616;2022-09-14T13:18:34;95249.28;;;25.61;62.54
64228;BME280;50546;49.146;10.616;2022-09-14T13:21:12;95249.34;;;25.32;62.89
64228;BME280;50546;49.146;10.616;2022-09-14T13:23:51;95250.53;;;25.31;64.13
64228;BME280;50546;49.146;10.616;2022-09-14T13:26:38;95241.22;;;25.12;64.29
64228;BME280;50546;49.146;10.616;2022-09-14T13:29:26;95243.03;;;25.18;64.52
64228;BME280;50546;49.146;10.616;2022-09-14T13:31:54;95239.50;;;25.31;63.61
64228;BME280;50546;49.146;10.616;2022-09-14T13:34:27;95242.16;;;25.21;65.53
64228;BME280;50546;49.146;10.616;2022-09-14T13:36:58;95218.31;;;25.15;64.18
64228;BME280;50546;49.146;10.616;2022-09-14T13:39:34;95219.34;;;24.92;64.68
64228;BME280;50546;49.146;10.616;2022-09-14T13:42:27;95227.53;;;25.08;64.23
64228;BME280;50546;49.146;10.616;2022-09-14T13:45:31;95214.22;;;25.19;64.98
64228;BME280;50546;49.146;10.616;2022-09-14T13:48:07;95219.34;;;25.47;64.51
64228;BME280;50546;49.146;10.616;2022-09-14T13:50:33;95215.06;;;25.71;63.14
64228;BME280;50546;49.146;10.616;2022-09-14T13:52:58;95215.50;;;25.95;62.71
64228;BME280;50546;49.146;10.616;2022-09-14T14:00:56;95204.56;;;25.40;63.91
64228;BME280;50546;49.146;10.616;2022-09-14T14:03:26;95197.72;;;25.45;63.28
64228;BME280;50546;49.146;10.616;2022-09-14T14:05:53;95209.50;;;25.33;63.61
64228;BME280;50546;49.146;10.616;2022-09-14T14:08:36;95203.53;;;25.21;63.67
64228;BME280;50546;49.146;10.616;2022-09-14T14:11:05;95213.03;;;25.20;64.16
64228;BME280;50546;49.146;10.616;2022-09-14T14:13:33;95210.50;;;24.97;64.80
64228;BME280;50546;49.146;10.616;2022-09-14T14:16:31;95210.59;;;24.81;66.00
64228;BME280;50546;49.146;10.616;2022-09-14T14:18:57;95205.94;;;24.78;66.09
64228;BME280;50546;49.146;10.616;2022-09-14T14:23:52;95204.50;;;24.44;67.98
64228;BME280;50546;49.146;10.616;2022-09-14T14:26:25;95208.09;;;24.24;69.02
64228;BME280;50546;49.146;10.616;2022-09-14T14:28:52;95210.13;;;23.75;71.52
64228;BME280;50546;49.146;10.616;2022-09-14T14:31:20;95234.88;;;23.39;73.74
64228;BME280;50546;49.146;10.616;2022-09-14T14:33:47;95246.31;;;22.97;77.27
64228;BME280;50546;49.146;10.616;2022-09-14T14:36:14;95260.03;;;22.54;79.21